| time (UTC) | temp C | wind direction | speed KPH | gust KPH | rain 1hr cm | rain 24hr cm | rain mn cm | humidity % | barometer mb |
| 20260510061232 | 13 | 175 | 0.0 | 1.6 | 0.00 | 0.00 | 0.43 | 98 | 1010.0 |
| 20260510060732 | 13 | 276 | 3.2 | 3.2 | 0.00 | 0.00 | 0.43 | 97 | 1010.0 |
| 20260510060232 | 13 | 222 | 1.6 | 3.2 | 0.00 | 0.00 | 0.41 | 97 | 1010.0 |
| 20260510055732 | 13 | 184 | 6.4 | 9.7 | 0.00 | 0.00 | 0.38 | 98 | 1010.0 |
| 20260510055231 | 12 | 191 | 4.8 | 8.0 | 0.00 | 0.00 | 0.38 | 99 | 1010.0 |
| 20260510054732 | 12 | 154 | 4.8 | 6.4 | 0.18 | 0.00 | 0.51 | 99 | 1011.0 |
| 20260510054231 | 13 | 290 | 4.8 | 4.8 | 1.04 | 0.00 | 0.41 | 99 | 1011.0 |
| 20260510053732 | 13 | 27 | 0.0 | 1.6 | 2.62 | 0.00 | 0.25 | 99 | 1011.0 |
| 20260510053232 | 13 | 18 | 9.7 | 12.9 | 0.00 | 0.00 | 0.20 | 99 | 1011.0 |
| 20260510052732 | 13 | 28 | 3.2 | 4.8 | 0.00 | 0.00 | 0.20 | 98 | 1011.0 |
| 20260510052232 | 13 | 120 | 4.8 | 6.4 | 0.00 | 0.00 | 0.20 | 98 | 1011.0 |
| 20260510051732 | 13 | 93 | 3.2 | 6.4 | 0.64 | 0.00 | 0.15 | 98 | 1011.0 |
| 20260510051232 | 13 | 194 | 1.6 | 4.8 | 0.25 | 0.00 | 0.13 | 97 | 1011.0 |
| 20260510050731 | 13 | 14 | 0.0 | 1.6 | 0.48 | 0.00 | 0.10 | 97 | 1011.0 |
| 20260510050232 | 13 | 8 | 3.2 | 3.2 | 0.00 | 0.00 | 0.03 | 97 | 1011.0 |
| 20260510045731 | 13 | 325 | 4.8 | 4.8 | 0.00 | 0.00 | 0.03 | 97 | 1011.0 |
| 20260510045231 | 13 | 32 | 0.0 | 1.6 | 0.00 | 0.00 | 0.03 | 96 | 1011.0 |
| 20260510044732 | 13 | 311 | 3.2 | 6.4 | 0.64 | 0.00 | 0.03 | 96 | 1011.0 |
| 20260510044231 | 13 | 299 | 3.2 | 4.8 | 0.00 | 0.00 | 0.00 | 96 | 1011.0 |
| 20260510043733 | 12 | 325 | 1.6 | 1.6 | 0.00 | 0.00 | 0.00 | 97 | 1010.0 |
| 20260510043231 | 12 | 313 | 3.2 | 4.8 | 0.00 | 0.00 | 0.00 | 97 | 1010.0 |
| 20260510042731 | 12 | 263 | 1.6 | 4.8 | 0.00 | 0.00 | 0.00 | 97 | 1010.0 |
| 20260510042231 | 12 | 323 | 1.6 | 3.2 | 0.00 | 0.00 | 0.00 | 97 | 1010.0 |
| 20260510041731 | 12 | 259 | 3.2 | 6.4 | 0.00 | 0.00 | 0.00 | 97 | 1010.0 |
| 20260510041232 | 12 | 159 | 1.6 | 3.2 | 0.00 | 0.00 | 0.00 | 97 | 1010.0 |
| 20260510040733 | 12 | 33 | 0.0 | 0.0 | 0.00 | 0.00 | 0.00 | 97 | 1010.0 |
| 20260510040232 | 12 | 299 | 3.2 | 3.2 | 0.00 | 0.00 | 0.00 | 97 | 1010.0 |
| 20260510035731 | 12 | 296 | 1.6 | 3.2 | 0.00 | 0.00 | 1.17 | 97 | 1010.0 |
| 20260510035231 | 12 | 194 | 1.6 | 3.2 | 0.00 | 0.00 | 1.17 | 97 | 1010.0 |
| 20260510034732 | 12 | 301 | 0.0 | 1.6 | 0.00 | 0.00 | 1.17 | 97 | 1010.0 |
| 20260510034231 | 12 | 220 | 0.0 | 3.2 | 0.00 | 0.00 | 1.17 | 97 | 1010.0 |
| 20260510033733 | 12 | 290 | 1.6 | 3.2 | 0.00 | 0.00 | 1.17 | 97 | 1010.0 |
| 20260510033231 | 12 | 140 | 1.6 | 4.8 | 0.00 | 0.00 | 1.17 | 97 | 1010.0 |
| 20260510032731 | 12 | 92 | 3.2 | 6.4 | 0.00 | 0.00 | 1.17 | 97 | 1010.0 |
| 20260510032232 | 12 | 133 | 3.2 | 6.4 | 0.05 | 0.00 | 1.02 | 96 | 1010.0 |
| 20260510031734 | 12 | 140 | 3.2 | 6.4 | 0.18 | 0.00 | 1.04 | 96 | 1010.0 |
| 20260510031233 | 12 | 158 | 4.8 | 8.0 | 0.97 | 0.00 | 0.99 | 96 | 1011.0 |
| 20260510030732 | 13 | 144 | 4.8 | 6.4 | 0.99 | 0.00 | 0.91 | 95 | 1011.0 |
| 20260510030233 | 13 | 278 | 3.2 | 4.8 | 0.64 | 0.00 | 0.86 | 95 | 1011.0 |
| 20260510025732 | 13 | 195 | 1.6 | 4.8 | 0.69 | 0.00 | 0.81 | 94 | 1011.0 |
| 20260510025231 | 13 | 89 | 0.0 | 1.6 | 0.36 | 0.00 | 0.79 | 93 | 1011.0 |
| 20260510024732 | 13 | 348 | 4.8 | 6.4 | 0.18 | 0.00 | 0.76 | 93 | 1011.0 |
| 20260510024232 | 13 | 327 | 3.2 | 4.8 | 0.03 | 0.00 | 0.76 | 92 | 1011.0 |
| 20260510023731 | 13 | 346 | 6.4 | 9.7 | 1.83 | 0.00 | 0.71 | 91 | 1011.0 |
| 20260510023232 | 14 | 0 | 6.4 | 12.9 | 2.11 | 0.00 | 0.61 | 87 | 1012.0 |
| 20260510022732 | 15 | 8 | 17.7 | 30.6 | 0.94 | 0.00 | 0.46 | 83 | 1011.0 |
| 20260510022232 | 15 | 9 | 30.6 | 51.5 | 0.23 | 0.00 | 0.43 | 75 | 1010.0 |
| 20260510021732 | 16 | 25 | 19.3 | 33.8 | 0.00 | 0.00 | 0.41 | 69 | 1010.0 |
| 20260510021232 | 16 | 25 | 16.1 | 25.7 | 0.00 | 0.00 | 0.41 | 69 | 1010.0 |
| 20260510020733 | 17 | 357 | 14.5 | 20.9 | 0.00 | 0.00 | 0.41 | 67 | 1010.0 |
| 20260510020232 | 18 | 17 | 16.1 | 22.5 | 0.00 | 0.00 | 0.41 | 64 | 1010.0 |
| 20260510015733 | 18 | 250 | 9.7 | 12.9 | 0.00 | 0.00 | 0.41 | 64 | 1009.0 |
| 20260510015231 | 18 | 237 | 12.9 | 17.7 | 0.00 | 0.00 | 0.41 | 64 | 1009.0 |
| 20260510014732 | 17 | 219 | 3.2 | 9.7 | 0.00 | 0.00 | 0.41 | 64 | 1008.0 |
| 20260510014232 | 17 | 196 | 8.0 | 12.9 | 0.00 | 0.00 | 0.41 | 64 | 1008.0 |
| 20260510013731 | 17 | 209 | 8.0 | 11.3 | 0.00 | 0.00 | 0.41 | 64 | 1008.0 |
| 20260510013232 | 17 | 204 | 8.0 | 11.3 | 0.00 | 0.00 | 0.41 | 64 | 1008.0 |
| 20260510012732 | 17 | 226 | 6.4 | 11.3 | 0.00 | 0.00 | 0.41 | 64 | 1008.0 |
| 20260510012231 | 17 | 218 | 8.0 | 12.9 | 0.00 | 0.00 | 0.41 | 63 | 1008.0 |
| 20260510011731 | 17 | 197 | 4.8 | 8.0 | 0.00 | 0.00 | 0.41 | 63 | 1008.0 |
| 20260510011232 | 18 | 205 | 4.8 | 14.5 | 0.00 | 0.00 | 0.41 | 63 | 1008.0 |
| 20260510010731 | 18 | 190 | 6.4 | 8.0 | 0.00 | 0.00 | 0.41 | 62 | 1008.0 |
| 20260510010232 | 18 | 197 | 4.8 | 6.4 | 0.00 | 0.00 | 0.41 | 62 | 1008.0 |
| 20260510005732 | 18 | 204 | 6.4 | 9.7 | 0.00 | 0.00 | 0.41 | 61 | 1008.0 |
| 20260510005231 | 18 | 201 | 6.4 | 6.4 | 0.00 | 0.00 | 0.41 | 60 | 1008.0 |
| 20260510004732 | 18 | 214 | 6.4 | 9.7 | 0.00 | 0.00 | 0.41 | 60 | 1008.0 |
| 20260510004231 | 18 | 227 | 8.0 | 12.9 | 0.00 | 0.00 | 0.41 | 59 | 1008.0 |
| 20260510003731 | 18 | 192 | 9.7 | 12.9 | 0.00 | 0.00 | 0.41 | 59 | 1008.0 |
| 20260510003232 | 18 | 231 | 8.0 | 14.5 | 0.00 | 0.00 | 0.41 | 58 | 1008.0 |
| 20260510002732 | 18 | 216 | 9.7 | 12.9 | 0.00 | 0.00 | 0.41 | 58 | 1008.0 |
| 20260510002231 | 19 | 214 | 6.4 | 9.7 | 0.00 | 0.00 | 0.41 | 58 | 1008.0 |
| 20260510001732 | 19 | 232 | 8.0 | 12.9 | 0.00 | 0.00 | 0.41 | 57 | 1008.0 |
| 20260510001232 | 19 | 239 | 6.4 | 11.3 | 0.00 | 0.00 | 0.41 | 57 | 1008.0 |
| 20260510000732 | 19 | 213 | 8.0 | 14.5 | 0.00 | 0.00 | 0.41 | 56 | 1007.0 |
| 20260510000233 | 19 | 254 | 8.0 | 12.9 | 0.00 | 0.00 | 0.41 | 56 | 1007.0 |
| 20260509235733 | 20 | 217 | 11.3 | 14.5 | 0.00 | 0.00 | 0.41 | 55 | 1007.0 |
| 20260509235233 | 20 | 231 | 9.7 | 16.1 | 0.00 | 0.00 | 0.41 | 55 | 1007.0 |
| 20260509234732 | 20 | 236 | 11.3 | 16.1 | 0.00 | 0.00 | 0.41 | 55 | 1007.0 |
| 20260509234232 | 20 | 254 | 11.3 | 19.3 | 0.00 | 0.00 | 0.41 | 55 | 1007.0 |
| 20260509233731 | 20 | 239 | 6.4 | 11.3 | 0.00 | 0.00 | 0.41 | 55 | 1007.0 |
| 20260509233231 | 20 | 217 | 8.0 | 14.5 | 0.00 | 0.00 | 0.41 | 54 | 1007.0 |
| 20260509232732 | 20 | 246 | 9.7 | 19.3 | 0.00 | 0.00 | 0.41 | 54 | 1007.0 |
| 20260509232233 | 20 | 256 | 12.9 | 19.3 | 0.00 | 0.00 | 0.41 | 54 | 1007.0 |
| 20260509231732 | 20 | 250 | 9.7 | 14.5 | 0.00 | 0.00 | 0.41 | 55 | 1007.0 |
| 20260509231231 | 20 | 258 | 9.7 | 16.1 | 0.00 | 0.00 | 0.41 | 54 | 1007.0 |
| 20260509230731 | 20 | 242 | 9.7 | 14.5 | 0.00 | 0.00 | 0.41 | 55 | 1007.0 |
| 20260509230231 | 20 | 230 | 12.9 | 22.5 | 0.00 | 0.00 | 0.41 | 55 | 1007.0 |
| 20260509225732 | 20 | 260 | 8.0 | 11.3 | 0.00 | 0.00 | 0.41 | 55 | 1007.0 |
| 20260509225231 | 20 | 201 | 12.9 | 17.7 | 0.00 | 0.00 | 0.41 | 55 | 1007.0 |
| 20260509224733 | 20 | 275 | 9.7 | 17.7 | 0.00 | 0.00 | 0.41 | 55 | 1007.0 |
| 20260509224231 | 20 | 220 | 11.3 | 16.1 | 0.00 | 0.00 | 0.41 | 55 | 1007.0 |
| 20260509223732 | 20 | 245 | 9.7 | 14.5 | 0.00 | 0.00 | 0.41 | 55 | 1007.0 |
| 20260509223231 | 20 | 220 | 4.8 | 9.7 | 0.00 | 0.00 | 0.41 | 55 | 1007.0 |
| 20260509222732 | 20 | 225 | 4.8 | 9.7 | 0.00 | 0.00 | 0.41 | 54 | 1007.0 |
| 20260509222231 | 20 | 260 | 9.7 | 14.5 | 0.00 | 0.00 | 0.41 | 55 | 1007.0 |
| 20260509221731 | 20 | 231 | 8.0 | 12.9 | 0.00 | 0.00 | 0.41 | 55 | 1007.0 |
| 20260509221232 | 20 | 240 | 12.9 | 17.7 | 0.00 | 0.00 | 0.41 | 56 | 1007.0 |
| 20260509220732 | 20 | 241 | 9.7 | 14.5 | 0.00 | 0.00 | 0.41 | 55 | 1007.0 |
| 20260509220231 | 20 | 244 | 11.3 | 14.5 | 0.00 | 0.00 | 0.41 | 55 | 1007.0 |
| 20260509215731 | 20 | 255 | 12.9 | 20.9 | 0.00 | 0.00 | 0.41 | 56 | 1007.0 |
| 20260509215232 | 20 | 228 | 12.9 | 17.7 | 0.00 | 0.00 | 0.41 | 56 | 1007.0 |
| 20260509214731 | 20 | 257 | 11.3 | 19.3 | 0.00 | 0.00 | 0.41 | 56 | 1007.0 |
| 20260509214232 | 20 | 201 | 12.9 | 20.9 | 0.00 | 0.00 | 0.41 | 56 | 1007.0 |
| 20260509213731 | 20 | 274 | 8.0 | 14.5 | 0.00 | 0.00 | 0.41 | 56 | 1007.0 |
| 20260509213232 | 19 | 269 | 11.3 | 17.7 | 0.00 | 0.00 | 0.41 | 57 | 1007.0 |
| 20260509212731 | 19 | 229 | 9.7 | 14.5 | 0.00 | 0.00 | 0.41 | 58 | 1007.0 |
| 20260509212231 | 19 | 269 | 12.9 | 17.7 | 0.00 | 0.00 | 0.41 | 57 | 1008.0 |
| 20260509211732 | 19 | 281 | 9.7 | 16.1 | 0.00 | 0.00 | 0.41 | 57 | 1008.0 |
| 20260509211232 | 19 | 275 | 12.9 | 22.5 | 0.00 | 0.00 | 0.41 | 57 | 1007.0 |
| 20260509210732 | 19 | 255 | 6.4 | 14.5 | 0.00 | 0.00 | 0.41 | 57 | 1007.0 |
| 20260509210231 | 19 | 257 | 9.7 | 12.9 | 0.00 | 0.00 | 0.41 | 58 | 1008.0 |
| 20260509205732 | 19 | 273 | 14.5 | 19.3 | 0.00 | 0.00 | 0.41 | 58 | 1008.0 |
| 20260509205231 | 19 | 283 | 14.5 | 20.9 | 0.00 | 0.00 | 0.41 | 59 | 1008.0 |
| 20260509204732 | 19 | 279 | 12.9 | 17.7 | 0.00 | 0.00 | 0.41 | 58 | 1008.0 |
| 20260509204231 | 19 | 291 | 14.5 | 19.3 | 0.00 | 0.00 | 0.41 | 59 | 1008.0 |
| 20260509203733 | 18 | 242 | 9.7 | 16.1 | 0.00 | 0.00 | 0.41 | 59 | 1008.0 |
| 20260509203231 | 18 | 247 | 11.3 | 17.7 | 0.00 | 0.00 | 0.41 | 60 | 1008.0 |
| 20260509202734 | 18 | 241 | 11.3 | 17.7 | 0.00 | 0.00 | 0.41 | 60 | 1008.0 |
| 20260509202232 | 18 | 239 | 6.4 | 11.3 | 0.00 | 0.00 | 0.41 | 61 | 1008.0 |
| 20260509201731 | 18 | 214 | 11.3 | 17.7 | 0.00 | 0.00 | 0.41 | 61 | 1008.0 |
| 20260509201232 | 18 | 216 | 9.7 | 20.9 | 0.00 | 0.00 | 0.41 | 62 | 1008.0 |
| 20260509200733 | 18 | 288 | 8.0 | 12.9 | 0.00 | 0.00 | 0.41 | 59 | 1008.0 |
| 20260509200232 | 18 | 268 | 11.3 | 19.3 | 0.00 | 0.00 | 0.41 | 61 | 1008.0 |
| 20260509195731 | 18 | 246 | 9.7 | 14.5 | 0.00 | 0.00 | 0.41 | 59 | 1008.0 |
| 20260509195232 | 18 | 222 | 6.4 | 12.9 | 0.00 | 0.00 | 0.41 | 61 | 1008.0 |
| 20260509194733 | 18 | 260 | 12.9 | 19.3 | 0.00 | 0.00 | 0.41 | 61 | 1008.0 |
| 20260509194237 | 17 | 240 | 4.8 | 11.3 | 0.00 | 0.00 | 0.41 | 60 | 1008.0 |
| 20260509193732 | 17 | 255 | 12.9 | 19.3 | 0.00 | 0.00 | 0.41 | 61 | 1009.0 |
| 20260509193232 | 17 | 234 | 14.5 | 22.5 | 0.00 | 0.00 | 0.41 | 60 | 1009.0 |
| 20260509192733 | 17 | 212 | 11.3 | 17.7 | 0.00 | 0.00 | 0.41 | 60 | 1009.0 |
| 20260509192231 | 17 | 233 | 11.3 | 16.1 | 0.00 | 0.00 | 0.41 | 61 | 1009.0 |
| 20260509191732 | 17 | 243 | 12.9 | 20.9 | 0.00 | 0.00 | 0.41 | 62 | 1009.0 |
| 20260509191232 | 17 | 223 | 12.9 | 20.9 | 0.00 | 0.00 | 0.41 | 62 | 1009.0 |
| 20260509190731 | 17 | 235 | 12.9 | 19.3 | 0.00 | 0.00 | 0.41 | 61 | 1009.0 |
| 20260509190232 | 17 | 258 | 14.5 | 19.3 | 0.00 | 0.00 | 0.41 | 61 | 1009.0 |
| 20260509185731 | 17 | 221 | 6.4 | 12.9 | 0.00 | 0.00 | 0.41 | 63 | 1009.0 |
| 20260509185231 | 17 | 219 | 9.7 | 14.5 | 0.00 | 0.00 | 0.41 | 64 | 1009.0 |
| 20260509184731 | 16 | 216 | 12.9 | 17.7 | 0.00 | 0.00 | 0.41 | 65 | 1009.0 |
| 20260509184231 | 17 | 270 | 11.3 | 14.5 | 0.00 | 0.00 | 0.41 | 66 | 1009.0 |
| 20260509183731 | 17 | 249 | 16.1 | 20.9 | 0.00 | 0.00 | 0.41 | 65 | 1009.0 |
| 20260509183232 | 16 | 231 | 11.3 | 14.5 | 0.00 | 0.00 | 0.41 | 64 | 1009.0 |
| 20260509182731 | 16 | 276 | 14.5 | 19.3 | 0.00 | 0.00 | 0.41 | 66 | 1009.0 |
| 20260509182233 | 16 | 217 | 12.9 | 16.1 | 0.00 | 0.00 | 0.41 | 66 | 1009.0 |
| 20260509181733 | 16 | 268 | 11.3 | 14.5 | 0.00 | 0.00 | 0.41 | 67 | 1009.0 |
| 20260509181232 | 16 | 263 | 11.3 | 16.1 | 0.00 | 0.00 | 0.41 | 68 | 1010.0 |
| 20260509180734 | 16 | 277 | 9.7 | 14.5 | 0.00 | 0.00 | 0.41 | 68 | 1010.0 |
| 20260509180232 | 16 | 258 | 8.0 | 12.9 | 0.00 | 0.00 | 0.41 | 68 | 1010.0 |
| 20260509175734 | 15 | 270 | 6.4 | 12.9 | 0.00 | 0.00 | 0.41 | 71 | 1010.0 |
| 20260509175231 | 15 | 240 | 8.0 | 12.9 | 0.00 | 0.00 | 0.41 | 71 | 1010.0 |
| 20260509174732 | 15 | 254 | 8.0 | 12.9 | 0.00 | 0.00 | 0.41 | 71 | 1010.0 |
| 20260509174234 | 15 | 233 | 6.4 | 19.3 | 0.00 | 0.00 | 0.41 | 71 | 1010.0 |
| 20260509173731 | 15 | 276 | 11.3 | 14.5 | 0.00 | 0.00 | 0.41 | 71 | 1010.0 |
| 20260509173232 | 15 | 234 | 6.4 | 11.3 | 0.00 | 0.00 | 0.41 | 72 | 1010.0 |
| 20260509172731 | 15 | 227 | 14.5 | 17.7 | 0.00 | 0.00 | 0.41 | 72 | 1009.0 |
| 20260509172232 | 15 | 241 | 12.9 | 17.7 | 0.00 | 0.00 | 0.41 | 73 | 1009.0 |
| 20260509171732 | 15 | 239 | 4.8 | 9.7 | 0.00 | 0.00 | 0.41 | 74 | 1009.0 |
| 20260509171231 | 15 | 224 | 11.3 | 20.9 | 0.00 | 0.00 | 0.41 | 74 | 1009.0 |
| 20260509170731 | 15 | 258 | 8.0 | 12.9 | 0.00 | 0.00 | 0.41 | 76 | 1009.0 |
| 20260509170231 | 15 | 247 | 9.7 | 14.5 | 0.00 | 0.00 | 0.41 | 76 | 1009.0 |
| 20260509165733 | 15 | 229 | 9.7 | 19.3 | 0.00 | 0.00 | 0.41 | 74 | 1009.0 |
| 20260509165232 | 15 | 255 | 8.0 | 11.3 | 0.00 | 0.00 | 0.41 | 76 | 1009.0 |
| 20260509164732 | 15 | 254 | 14.5 | 20.9 | 0.00 | 0.00 | 0.41 | 77 | 1009.0 |
| 20260509164231 | 15 | 235 | 16.1 | 20.9 | 0.00 | 0.00 | 0.41 | 78 | 1009.0 |
| 20260509163731 | 15 | 257 | 6.4 | 11.3 | 0.00 | 0.00 | 0.41 | 77 | 1009.0 |
| 20260509163231 | 14 | 235 | 8.0 | 12.9 | 0.00 | 0.00 | 0.41 | 80 | 1009.0 |
| 20260509162731 | 14 | 252 | 4.8 | 9.7 | 0.00 | 0.00 | 0.41 | 81 | 1009.0 |
| 20260509162232 | 14 | 242 | 8.0 | 14.5 | 0.00 | 0.00 | 0.41 | 81 | 1009.0 |
| 20260509161733 | 13 | 271 | 9.7 | 16.1 | 0.00 | 0.00 | 0.41 | 82 | 1009.0 |
| 20260509161233 | 13 | 249 | 12.9 | 17.7 | 0.00 | 0.00 | 0.41 | 81 | 1010.0 |
| 20260509160732 | 13 | 269 | 11.3 | 19.3 | 0.00 | 0.00 | 0.41 | 83 | 1009.0 |
| 20260509160233 | 13 | 251 | 9.7 | 14.5 | 0.00 | 0.00 | 0.41 | 84 | 1009.0 |
| 20260509155731 | 13 | 251 | 9.7 | 14.5 | 0.00 | 0.00 | 0.41 | 86 | 1009.0 |
| 20260509155231 | 13 | 291 | 6.4 | 9.7 | 0.00 | 0.00 | 0.41 | 86 | 1009.0 |
| 20260509154731 | 12 | 215 | 4.8 | 6.4 | 0.00 | 0.00 | 0.41 | 88 | 1009.0 |
| 20260509154232 | 12 | 269 | 9.7 | 12.9 | 0.00 | 0.00 | 0.41 | 89 | 1009.0 |
| 20260509153731 | 12 | 201 | 4.8 | 8.0 | 0.00 | 0.00 | 0.41 | 89 | 1009.0 |
| 20260509153234 | 12 | 202 | 8.0 | 11.3 | 0.00 | 0.00 | 0.41 | 89 | 1009.0 |
| 20260509152732 | 12 | 200 | 9.7 | 12.9 | 0.00 | 0.00 | 0.41 | 90 | 1009.0 |
| 20260509152232 | 12 | 229 | 8.0 | 11.3 | 0.03 | 0.00 | 0.41 | 91 | 1009.0 |
| 20260509151733 | 12 | 210 | 6.4 | 6.4 | 0.03 | 0.00 | 0.38 | 90 | 1009.0 |
| 20260509151233 | 12 | 245 | 4.8 | 9.7 | 0.00 | 0.00 | 0.38 | 90 | 1009.0 |
| 20260509150731 | 12 | 202 | 6.4 | 11.3 | 0.00 | 0.00 | 0.38 | 90 | 1009.0 |
| 20260509150233 | 12 | 259 | 4.8 | 8.0 | 0.00 | 0.00 | 0.38 | 89 | 1009.0 |
| 20260509145732 | 12 | 220 | 6.4 | 12.9 | 0.00 | 0.00 | 0.38 | 90 | 1009.0 |
| 20260509145233 | 12 | 232 | 9.7 | 11.3 | 0.00 | 0.00 | 0.38 | 89 | 1009.0 |
| 20260509144731 | 12 | 249 | 6.4 | 8.0 | 0.00 | 0.00 | 0.38 | 91 | 1009.0 |
| 20260509144231 | 12 | 224 | 6.4 | 9.7 | 0.00 | 0.00 | 0.38 | 90 | 1009.0 |
| 20260509143731 | 12 | 250 | 6.4 | 9.7 | 0.00 | 0.00 | 0.38 | 90 | 1009.0 |
| 20260509143232 | 12 | 204 | 8.0 | 12.9 | 0.00 | 0.00 | 0.38 | 91 | 1009.0 |
| 20260509142737 | 12 | 216 | 6.4 | 8.0 | 0.00 | 0.00 | 0.38 | 91 | 1009.0 |
| 20260509142233 | 12 | 230 | 6.4 | 6.4 | 0.00 | 0.00 | 0.36 | 91 | 1009.0 |
| 20260509141731 | 12 | 216 | 4.8 | 8.0 | 0.00 | 0.00 | 0.36 | 91 | 1009.0 |
| 20260509141233 | 12 | 199 | 6.4 | 8.0 | 0.00 | 0.00 | 0.36 | 91 | 1009.0 |
| 20260509140733 | 12 | 210 | 9.7 | 14.5 | 0.00 | 0.00 | 0.36 | 91 | 1009.0 |
| 20260509140232 | 12 | 220 | 4.8 | 8.0 | 0.00 | 0.00 | 0.33 | 91 | 1009.0 |
| 20260509135732 | 12 | 201 | 6.4 | 8.0 | 0.00 | 0.00 | 0.33 | 92 | 1009.0 |
| 20260509135231 | 12 | 204 | 6.4 | 9.7 | 0.00 | 0.00 | 0.33 | 91 | 1009.0 |
| 20260509134731 | 12 | 210 | 6.4 | 9.7 | 0.00 | 0.00 | 0.33 | 92 | 1009.0 |
| 20260509134232 | 11 | 227 | 4.8 | 6.4 | 0.00 | 0.00 | 0.33 | 92 | 1009.0 |
| 20260509133731 | 11 | 209 | 6.4 | 9.7 | 0.00 | 0.00 | 0.33 | 93 | 1009.0 |
| 20260509133233 | 11 | 256 | 6.4 | 8.0 | 0.00 | 0.00 | 0.33 | 93 | 1009.0 |
| 20260509132732 | 11 | 193 | 6.4 | 9.7 | 0.00 | 0.00 | 0.33 | 92 | 1009.0 |
| 20260509132233 | 11 | 226 | 6.4 | 9.7 | 0.00 | 0.00 | 0.28 | 93 | 1009.0 |
| 20260509131731 | 11 | 245 | 8.0 | 11.3 | 0.00 | 0.00 | 0.25 | 94 | 1009.0 |
| 20260509131231 | 11 | 267 | 8.0 | 9.7 | 0.00 | 0.00 | 0.25 | 94 | 1010.0 |
| 20260509130733 | 11 | 242 | 3.2 | 8.0 | 0.05 | 0.00 | 0.25 | 94 | 1009.0 |
| 20260509130233 | 11 | 199 | 6.4 | 9.7 | 0.08 | 0.00 | 0.23 | 94 | 1009.0 |
| 20260509125733 | 11 | 217 | 3.2 | 6.4 | 0.20 | 0.00 | 0.23 | 94 | 1010.0 |
| 20260509125231 | 11 | 212 | 9.7 | 14.5 | 0.25 | 0.00 | 0.20 | 93 | 1009.0 |
| 20260509124733 | 11 | 190 | 8.0 | 11.3 | 0.18 | 0.00 | 0.18 | 93 | 1010.0 |
| 20260509124232 | 11 | 203 | 4.8 | 8.0 | 0.03 | 0.00 | 0.18 | 92 | 1010.0 |
| 20260509123732 | 11 | 233 | 6.4 | 9.7 | 0.10 | 0.00 | 0.15 | 92 | 1010.0 |
| 20260509123233 | 11 | 245 | 6.4 | 12.9 | 0.00 | 0.00 | 0.15 | 92 | 1010.0 |
| 20260509122731 | 11 | 194 | 9.7 | 14.5 | 0.00 | 0.00 | 0.13 | 92 | 1010.0 |
| 20260509122231 | 11 | 199 | 6.4 | 8.0 | 0.03 | 0.00 | 0.18 | 92 | 1010.0 |
| 20260509121733 | 11 | 265 | 1.6 | 4.8 | 0.03 | 0.00 | 0.15 | 92 | 1010.0 |
| 20260509121231 | 11 | 223 | 4.8 | 8.0 | 0.00 | 0.00 | 0.15 | 91 | 1010.0 |
| 20260509120733 | 11 | 233 | 4.8 | 8.0 | 0.00 | 0.00 | 0.15 | 91 | 1010.0 |
| 20260509120233 | 11 | 259 | 8.0 | 14.5 | 0.03 | 0.00 | 0.15 | 90 | 1010.0 |
| 20260509115734 | 11 | 230 | 3.2 | 8.0 | 0.03 | 0.00 | 0.13 | 90 | 1010.0 |
| 20260509115232 | 11 | 237 | 3.2 | 6.4 | 0.08 | 0.00 | 0.13 | 90 | 1010.0 |
| 20260509114732 | 11 | 222 | 8.0 | 12.9 | 0.05 | 0.00 | 0.13 | 90 | 1010.0 |
| 20260509114232 | 11 | 246 | 3.2 | 9.7 | 0.00 | 0.00 | 0.13 | 89 | 1010.0 |
| 20260509113734 | 11 | 221 | 8.0 | 9.7 | 0.00 | 0.00 | 0.13 | 89 | 1010.0 |
| 20260509113234 | 11 | 234 | 12.9 | 16.1 | 0.03 | 0.00 | 0.10 | 89 | 1010.0 |
| 20260509112732 | 11 | 241 | 8.0 | 11.3 | 0.05 | 0.00 | 0.10 | 89 | 1010.0 |
| 20260509112231 | 12 | 213 | 6.4 | 14.5 | 0.08 | 0.00 | 0.10 | 88 | 1010.0 |
| 20260509111732 | 12 | 239 | 6.4 | 9.7 | 0.10 | 0.00 | 0.08 | 88 | 1010.0 |
| 20260509111231 | 12 | 234 | 3.2 | 9.7 | 0.30 | 0.00 | 0.08 | 86 | 1010.0 |
| 20260509110732 | 12 | 238 | 11.3 | 17.7 | 0.10 | 0.00 | 0.05 | 84 | 1009.0 |
| 20260509110231 | 12 | 252 | 9.7 | 16.1 | 0.00 | 0.00 | 0.05 | 84 | 1009.0 |
| 20260509105731 | 12 | 261 | 8.0 | 12.9 | 0.00 | 0.00 | 0.05 | 83 | 1009.0 |
| 20260509105233 | 12 | 226 | 6.4 | 11.3 | 0.00 | 0.00 | 0.05 | 84 | 1009.0 |
| 20260509104732 | 12 | 221 | 4.8 | 8.0 | 0.00 | 0.00 | 0.05 | 84 | 1009.0 |
| 20260509104231 | 12 | 214 | 9.7 | 14.5 | 0.00 | 0.00 | 0.05 | 83 | 1009.0 |
| 20260509103734 | 12 | 199 | 6.4 | 11.3 | 0.00 | 0.00 | 0.05 | 84 | 1009.0 |
| 20260509103233 | 12 | 218 | 11.3 | 16.1 | 0.00 | 0.00 | 0.05 | 84 | 1009.0 |
| 20260509102733 | 12 | 220 | 4.8 | 14.5 | 0.00 | 0.00 | 0.05 | 84 | 1009.0 |
| 20260509102233 | 12 | 223 | 8.0 | 11.3 | 0.00 | 0.00 | 0.05 | 84 | 1009.0 |
| 20260509101732 | 12 | 233 | 3.2 | 11.3 | 0.00 | 0.00 | 0.05 | 84 | 1009.0 |
| 20260509101233 | 12 | 221 | 6.4 | 8.0 | 0.00 | 0.00 | 0.05 | 84 | 1009.0 |
| 20260509100733 | 12 | 225 | 6.4 | 11.3 | 0.00 | 0.00 | 0.05 | 84 | 1009.0 |
| 20260509100233 | 12 | 222 | 9.7 | 14.5 | 0.00 | 0.00 | 0.05 | 84 | 1009.0 |
| 20260509095732 | 12 | 199 | 9.7 | 12.9 | 0.00 | 0.00 | 0.05 | 84 | 1009.0 |
| 20260509095231 | 12 | 224 | 9.7 | 11.3 | 0.00 | 0.00 | 0.05 | 84 | 1009.0 |
| 20260509094731 | 11 | 255 | 1.6 | 4.8 | 0.00 | 0.00 | 0.03 | 86 | 1009.0 |
| 20260509094233 | 11 | 215 | 3.2 | 6.4 | 0.00 | 0.00 | 0.03 | 86 | 1009.0 |
| 20260509093732 | 11 | 284 | 8.0 | 11.3 | 0.03 | 0.00 | 0.03 | 89 | 1009.0 |
| 20260509093232 | 10 | 234 | 1.6 | 3.2 | 0.00 | 0.00 | 0.03 | 94 | 1009.0 |
| 20260509092732 | 10 | 301 | 3.2 | 3.2 | 0.00 | 0.00 | 0.03 | 95 | 1010.0 |
| 20260509092233 | 10 | 8 | 1.6 | 3.2 | 0.00 | 0.00 | 0.03 | 96 | 1010.0 |
| 20260509091732 | 10 | 318 | 1.6 | 3.2 | 0.03 | 0.00 | 0.00 | 96 | 1010.0 |
| 20260509091232 | 10 | 287 | 3.2 | 3.2 | 0.08 | 0.00 | 0.00 | 96 | 1010.0 |
| 20260509090732 | 10 | 0 | 0.0 | 0.0 | 0.03 | 0.00 | 0.00 | 96 | 1010.0 |
| 20260509090232 | 10 | 358 | 1.6 | 3.2 | 0.00 | 0.00 | 0.00 | 96 | 1010.0 |
| 20260509085732 | 10 | 107 | 0.0 | 3.2 | 0.05 | 0.00 | 0.00 | 96 | 1010.0 |
| 20260509085231 | 10 | 96 | 1.6 | 1.6 | 0.00 | 0.00 | 0.00 | 95 | 1010.0 |
| 20260509084731 | 10 | 188 | 0.0 | 1.6 | 0.00 | 0.00 | 0.00 | 95 | 1010.0 |
| 20260509084232 | 10 | 18 | 0.0 | 0.0 | 0.00 | 0.00 | 0.00 | 95 | 1010.0 |
| 20260509083733 | 10 | 38 | 0.0 | 0.0 | 0.00 | 0.00 | 0.00 | 95 | 1010.0 |
| 20260509083231 | 10 | 334 | 1.6 | 3.2 | 0.00 | 0.00 | 0.00 | 95 | 1010.0 |
| 20260509082732 | 10 | 0 | 0.0 | 0.0 | 0.00 | 0.00 | 0.00 | 95 | 1010.0 |
| 20260509082232 | 10 | 329 | 1.6 | 1.6 | 0.00 | 0.00 | 0.00 | 95 | 1010.0 |
| 20260509081734 | 10 | 7 | 0.0 | 0.0 | 0.00 | 0.00 | 0.00 | 95 | 1010.0 |
| 20260509081233 | 10 | 172 | 0.0 | 1.6 | 0.00 | 0.00 | 0.00 | 95 | 1010.0 |
| 20260509080732 | 10 | 149 | 0.0 | 0.0 | 0.00 | 0.00 | 0.00 | 95 | 1010.0 |
| 20260509080233 | 10 | 0 | 0.0 | 0.0 | 0.00 | 0.00 | 0.00 | 95 | 1010.0 |
| 20260509075731 | 10 | 0 | 0.0 | 0.0 | 0.00 | 0.00 | 0.00 | 95 | 1010.0 |
| 20260509075231 | 10 | 0 | 0.0 | 0.0 | 0.00 | 0.00 | 0.00 | 95 | 1010.0 |
| 20260509074731 | 10 | 79 | 1.6 | 3.2 | 0.00 | 0.00 | 0.00 | 95 | 1010.0 |
| 20260509074233 | 10 | 347 | 3.2 | 3.2 | 0.00 | 0.00 | 0.00 | 95 | 1010.0 |
| 20260509073731 | 10 | 31 | 3.2 | 3.2 | 0.00 | 0.00 | 0.00 | 95 | 1010.0 |
| 20260509073232 | 10 | 355 | 4.8 | 6.4 | 0.00 | 0.00 | 0.00 | 95 | 1010.0 |
| 20260509072732 | 10 | 22 | 4.8 | 4.8 | 0.00 | 0.00 | 0.00 | 95 | 1010.0 |
| 20260509072232 | 10 | 4 | 3.2 | 4.8 | 0.00 | 0.00 | 0.00 | 95 | 1010.0 |
| 20260509071733 | 10 | 13 | 4.8 | 6.4 | 0.00 | 0.00 | 0.00 | 94 | 1010.0 |
| 20260509071231 | 10 | 20 | 6.4 | 8.0 | 0.00 | 0.00 | 0.00 | 94 | 1010.0 |
| 20260509070732 | 10 | 14 | 6.4 | 8.0 | 0.00 | 0.00 | 0.00 | 93 | 1010.0 |
| 20260509070231 | 10 | 8 | 4.8 | 6.4 | 0.00 | 0.00 | 0.00 | 92 | 1010.0 |
| 20260509065731 | 10 | 1 | 3.2 | 3.2 | 0.00 | 0.00 | 0.00 | 92 | 1009.0 |
| 20260509065232 | 10 | 13 | 4.8 | 4.8 | 0.00 | 0.00 | 0.00 | 91 | 1010.0 |
| 20260509064731 | 10 | 49 | 3.2 | 4.8 | 0.00 | 0.00 | 0.00 | 91 | 1010.0 |
| 20260509064231 | 10 | 338 | 1.6 | 3.2 | 0.00 | 0.00 | 0.00 | 91 | 1010.0 |
| 20260509063732 | 10 | 83 | 4.8 | 6.4 | 0.00 | 0.00 | 0.00 | 90 | 1010.0 |
| 20260509063231 | 10 | 76 | 4.8 | 8.0 | 0.00 | 0.00 | 0.00 | 91 | 1010.0 |
| 20260509062734 | 10 | 199 | 0.0 | 3.2 | 0.00 | 0.00 | 0.00 | 92 | 1010.0 |
| 20260509062232 | 10 | 0 | 0.0 | 0.0 | 0.00 | 0.00 | 0.00 | 93 | 1010.0 |
| 20260509061731 | 10 | 288 | 0.0 | 1.6 | 0.00 | 0.00 | 0.00 | 92 | 1010.0 |